Time;durP1;ratioP1;P1;durP2;ratioP2;P2;SDS_P1;SDS_P2;PMS_P1;PMS_P2;Temp;Humidity;BMP_temperature;BMP_pressure;BME280_temperature;BME280_humidity;BME280_pressure;Samples;Min_cycle;Max_cycle;Signal;HPM_P1;HPM_P2
2022/04/06 00:01:49;;;;;;;3.50;2.60;;;;;;;;;;5107117;28;20031;-58
2022/04/06 00:04:16;;;;;;;3.92;2.58;;;;;;;;;;5089150;28;20035;-58
2022/04/06 00:06:42;;;;;;;3.55;2.38;;;;;;;;;;5103333;28;20050;-58
2022/04/06 00:09:08;;;;;;;2.22;1.80;;;;;;;;;;5109553;28;20016;-58
2022/04/06 00:11:34;;;;;;;1.77;1.58;;;;;;;;;;5107640;28;20031;-58
2022/04/06 00:14:00;;;;;;;2.15;1.70;;;;;;;;;;5109635;28;20054;-58
2022/04/06 00:16:26;;;;;;;2.83;2.17;;;;;;;;;;5108411;28;20032;-58
2022/04/06 00:18:53;;;;;;;3.28;2.63;;;;;;;;;;5109916;28;20504;-58
2022/04/06 00:21:19;;;;;;;3.20;2.60;;;;;;;;;;5108029;28;20403;-58
2022/04/06 00:23:45;;;;;;;3.63;2.33;;;;;;;;;;5108315;28;20499;-58
2022/04/06 00:26:11;;;;;;;2.80;2.05;;;;;;;;;;5109069;28;20027;-58
2022/04/06 00:28:37;;;;;;;2.58;2.08;;;;;;;;;;5109342;28;20472;-58
2022/04/06 00:31:03;;;;;;;7.22;3.80;;;;;;;;;;5109463;28;20103;-58
2022/04/06 00:33:29;;;;;;;5.70;3.08;;;;;;;;;;5108312;28;20027;-58
2022/04/06 00:35:56;;;;;;;7.10;3.95;;;;;;;;;;5109318;28;20410;-58
2022/04/06 00:38:22;;;;;;;6.53;3.47;;;;;;;;;;5109581;28;20024;-58
2022/04/06 00:40:49;;;;;;;6.75;3.95;;;;;;;;;;5109260;28;20430;-58
2022/04/06 00:43:15;;;;;;;5.25;3.25;;;;;;;;;;5108607;28;20023;-58
2022/04/06 00:45:41;;;;;;;4.82;2.83;;;;;;;;;;5104943;28;20051;-58
2022/04/06 00:48:08;;;;;;;3.35;2.50;;;;;;;;;;5109086;28;20499;-58
2022/04/06 00:50:35;;;;;;;3.53;2.50;;;;;;;;;;5109154;28;20109;-58
2022/04/06 00:53:01;;;;;;;3.63;2.38;;;;;;;;;;5108994;28;20632;-58
2022/04/06 00:55:31;;;;;;;3.55;2.65;;;;;;;;;;5107182;28;20500;-58
2022/04/06 00:57:58;;;;;;;2.75;2.13;;;;;;;;;;5109106;28;20031;-58
2022/04/06 01:00:24;;;;;;;3.83;2.75;;;;;;;;;;5107042;28;20114;-58
2022/04/06 01:02:50;;;;;;;4.57;2.88;;;;;;;;;;5106245;28;20027;-58
2022/04/06 01:05:16;;;;;;;4.07;2.25;;;;;;;;;;5104295;28;20023;-58
2022/04/06 01:07:43;;;;;;;4.82;2.42;;;;;;;;;;5105258;28;20031;-58
2022/04/06 01:10:09;;;;;;;3.28;2.28;;;;;;;;;;5104301;28;20044;-58
2022/04/06 01:12:35;;;;;;;2.42;1.75;;;;;;;;;;5105652;28;20116;-58
2022/04/06 01:15:02;;;;;;;3.13;2.30;;;;;;;;;;5107695;28;20023;-58
2022/04/06 01:17:34;;;;;;;2.70;2.03;;;;;;;;;;5106073;28;20042;-58
2022/04/06 01:20:01;;;;;;;2.83;1.75;;;;;;;;;;5105034;28;20030;-58
2022/04/06 01:22:27;;;;;;;2.70;1.67;;;;;;;;;;5106119;28;20024;-58
2022/04/06 01:24:54;;;;;;;2.40;1.70;;;;;;;;;;5109963;28;20125;-58
2022/04/06 01:27:20;;;;;;;1.98;1.45;;;;;;;;;;5110466;28;20055;-58
2022/04/06 01:29:47;;;;;;;1.90;1.60;;;;;;;;;;5107414;28;20015;-58
2022/04/06 01:32:20;;;;;;;2.58;1.50;;;;;;;;;;5109145;28;20461;-58
2022/04/06 01:34:46;;;;;;;2.35;1.67;;;;;;;;;;5109403;28;20024;-58
2022/04/06 01:37:13;;;;;;;1.50;1.40;;;;;;;;;;5109127;28;20028;-58
2022/04/06 01:39:42;;;;;;;1.15;1.05;;;;;;;;;;5107013;28;20503;-58
2022/04/06 01:42:09;;;;;;;1.50;1.20;;;;;;;;;;5109241;27;20028;-58
2022/04/06 01:44:36;;;;;;;2.63;1.92;;;;;;;;;;5107492;27;20057;-58
2022/04/06 01:47:03;;;;;;;1.58;1.40;;;;;;;;;;5109830;28;20058;-58
2022/04/06 01:52:15;;;;;;;1.42;1.30;;;;;;;;;;5088768;28;20515;-58
2022/04/06 01:54:46;;;;;;;1.90;1.40;;;;;;;;;;5088719;28;20528;-58
2022/04/06 01:57:13;;;;;;;1.92;1.42;;;;;;;;;;5088649;28;20047;-59
2022/04/06 01:59:39;;;;;;;2.03;1.58;;;;;;;;;;5088299;28;20485;-58
2022/04/06 02:02:06;;;;;;;2.55;1.75;;;;;;;;;;5087995;28;20039;-58
2022/04/06 02:04:32;;;;;;;1.52;1.38;;;;;;;;;;5089075;28;20055;-58
2022/04/06 02:06:59;;;;;;;1.42;1.30;;;;;;;;;;5088404;28;20048;-58
2022/04/06 02:09:25;;;;;;;1.88;1.35;;;;;;;;;;5088322;28;20024;-58
2022/04/06 02:11:51;;;;;;;2.00;1.25;;;;;;;;;;5105986;28;20039;-58
2022/04/06 02:14:17;;;;;;;1.83;1.25;;;;;;;;;;5108559;28;20462;-58
2022/04/06 02:16:43;;;;;;;2.50;1.90;;;;;;;;;;5108480;27;20023;-58
2022/04/06 02:19:10;;;;;;;2.15;1.33;;;;;;;;;;5108501;28;20020;-58
2022/04/06 02:21:36;;;;;;;2.88;2.03;;;;;;;;;;5106616;27;20039;-58
2022/04/06 02:24:02;;;;;;;2.03;1.60;;;;;;;;;;5108857;28;20503;-58
2022/04/06 02:26:28;;;;;;;2.35;1.60;;;;;;;;;;5106461;28;20035;-58
2022/04/06 02:28:55;;;;;;;2.20;1.60;;;;;;;;;;5108511;28;20051;-58
2022/04/06 02:31:21;;;;;;;1.67;1.58;;;;;;;;;;5104320;28;20389;-58
2022/04/06 02:33:47;;;;;;;1.92;1.60;;;;;;;;;;5107752;28;20028;-58
2022/04/06 02:36:13;;;;;;;1.77;1.45;;;;;;;;;;5108084;28;20411;-58
2022/04/06 02:38:39;;;;;;;1.92;1.45;;;;;;;;;;5108394;28;20383;-58
2022/04/06 02:41:06;;;;;;;2.22;1.75;;;;;;;;;;5107232;28;20107;-58
2022/04/06 02:43:32;;;;;;;1.67;1.38;;;;;;;;;;5108993;28;20028;-58
2022/04/06 02:45:58;;;;;;;1.85;1.50;;;;;;;;;;5107810;28;20031;-58
2022/04/06 02:48:24;;;;;;;2.28;1.58;;;;;;;;;;5107297;28;20038;-58
2022/04/06 02:50:50;;;;;;;2.22;1.70;;;;;;;;;;5106369;27;20035;-58
2022/04/06 02:53:17;;;;;;;3.40;1.50;;;;;;;;;;5108008;28;20028;-58
2022/04/06 02:55:43;;;;;;;1.92;1.50;;;;;;;;;;5106387;28;20497;-58
2022/04/06 02:58:09;;;;;;;2.05;1.60;;;;;;;;;;5107675;28;20034;-58
2022/04/06 03:00:35;;;;;;;1.70;1.60;;;;;;;;;;5104281;28;20037;-58
2022/04/06 03:03:02;;;;;;;3.08;1.70;;;;;;;;;;5106889;28;20047;-58
2022/04/06 03:05:29;;;;;;;2.28;1.80;;;;;;;;;;5106778;28;20122;-58
2022/04/06 03:07:55;;;;;;;2.53;1.88;;;;;;;;;;5107444;28;20020;-58
2022/04/06 03:10:21;;;;;;;2.40;1.70;;;;;;;;;;5106597;28;20454;-58
2022/04/06 03:12:47;;;;;;;2.10;1.88;;;;;;;;;;5108398;28;20491;-58
2022/04/06 03:15:14;;;;;;;2.10;1.70;;;;;;;;;;5107909;28;20028;-58
2022/04/06 03:17:41;;;;;;;3.10;2.00;;;;;;;;;;5107632;28;20148;-58
2022/04/06 03:20:08;;;;;;;2.13;1.40;;;;;;;;;;5105388;28;20037;-58
2022/04/06 03:22:34;;;;;;;2.03;1.73;;;;;;;;;;5107136;28;20023;-58
2022/04/06 03:25:00;;;;;;;3.33;1.77;;;;;;;;;;5106597;28;20028;-58
2022/04/06 03:27:26;;;;;;;2.47;1.73;;;;;;;;;;5107171;28;20020;-58
2022/04/06 03:29:52;;;;;;;1.75;1.48;;;;;;;;;;5106930;28;20027;-58
2022/04/06 03:32:18;;;;;;;2.90;1.60;;;;;;;;;;5105620;28;20031;-58
2022/04/06 03:34:44;;;;;;;2.67;1.65;;;;;;;;;;5107736;28;20027;-58
2022/04/06 03:37:10;;;;;;;2.08;1.65;;;;;;;;;;5105757;28;20030;-58
2022/04/06 03:39:36;;;;;;;2.75;2.00;;;;;;;;;;5106249;28;20033;-58
2022/04/06 03:42:02;;;;;;;3.42;1.85;;;;;;;;;;5105037;28;20123;-58
2022/04/06 03:44:28;;;;;;;3.15;2.10;;;;;;;;;;5106621;28;20075;-58
2022/04/06 03:46:56;;;;;;;2.60;1.90;;;;;;;;;;5106186;28;20069;-58
2022/04/06 03:49:22;;;;;;;3.13;2.10;;;;;;;;;;5106603;28;20030;-58
2022/04/06 03:51:48;;;;;;;3.55;2.10;;;;;;;;;;5103273;28;20059;-58
2022/04/06 03:54:14;;;;;;;3.00;2.30;;;;;;;;;;5105954;28;20027;-58
2022/04/06 03:56:40;;;;;;;3.97;2.30;;;;;;;;;;5106355;28;20130;-58
2022/04/06 03:59:06;;;;;;;7.53;3.42;;;;;;;;;;5106230;28;20085;-58
2022/04/06 04:01:35;;;;;;;18.38;7.47;;;;;;;;;;5104428;28;20076;-58
2022/04/06 04:04:04;;;;;;;20.38;8.23;;;;;;;;;;5106692;28;20019;-58
2022/04/06 04:06:30;;;;;;;20.60;8.10;;;;;;;;;;5106843;28;20015;-58
2022/04/06 04:08:56;;;;;;;16.00;6.38;;;;;;;;;;5106385;28;20039;-58
2022/04/06 04:11:22;;;;;;;9.75;5.25;;;;;;;;;;5104157;28;20042;-58
2022/04/06 04:13:48;;;;;;;8.40;4.22;;;;;;;;;;5106264;28;20024;-58
2022/04/06 04:16:14;;;;;;;12.40;5.30;;;;;;;;;;5107027;28;20020;-58
2022/04/06 04:18:41;;;;;;;11.23;4.90;;;;;;;;;;5105071;28;20412;-58
2022/04/06 04:23:52;;;;;;;40.35;14.48;;;;;;;;;;5105348;28;20046;-58
2022/04/06 04:26:18;;;;;;;32.33;12.23;;;;;;;;;;5105925;28;20036;-58
2022/04/06 04:28:44;;;;;;;32.80;13.43;;;;;;;;;;5102777;28;20566;-58
2022/04/06 04:31:10;;;;;;;34.33;13.30;;;;;;;;;;5105986;28;20132;-58
2022/04/06 04:33:36;;;;;;;30.80;13.52;;;;;;;;;;5105972;28;20027;-58
2022/04/06 04:36:02;;;;;;;29.17;12.45;;;;;;;;;;5105966;28;20112;-58
2022/04/06 04:38:28;;;;;;;28.77;11.77;;;;;;;;;;5104041;28;20125;-58
2022/04/06 04:40:55;;;;;;;29.48;12.45;;;;;;;;;;5106044;28;20031;-58
2022/04/06 04:43:22;;;;;;;23.88;10.40;;;;;;;;;;5105492;28;20027;-58
2022/04/06 04:45:49;;;;;;;20.27;9.20;;;;;;;;;;5105619;28;20016;-58
2022/04/06 04:48:15;;;;;;;19.02;8.80;;;;;;;;;;5104196;28;20027;-58
2022/04/06 04:50:41;;;;;;;14.25;7.32;;;;;;;;;;5103448;28;20488;-58
2022/04/06 04:53:07;;;;;;;13.00;5.82;;;;;;;;;;5105641;28;20061;-58
2022/04/06 04:55:34;;;;;;;10.20;5.40;;;;;;;;;;5104908;28;20070;-58
2022/04/06 04:58:01;;;;;;;8.77;4.80;;;;;;;;;;5102155;28;20024;-58
2022/04/06 05:00:27;;;;;;;9.25;4.80;;;;;;;;;;5104264;28;20449;-58
2022/04/06 05:02:53;;;;;;;8.63;4.95;;;;;;;;;;5105207;28;20072;-58
2022/04/06 05:05:19;;;;;;;6.85;4.15;;;;;;;;;;5105111;28;20020;-58
2022/04/06 05:07:45;;;;;;;5.18;3.50;;;;;;;;;;5105329;28;20564;-58
2022/04/06 05:10:11;;;;;;;4.10;2.80;;;;;;;;;;5104968;28;20141;-58
2022/04/06 05:12:37;;;;;;;4.15;2.85;;;;;;;;;;5104827;28;20116;-58
2022/04/06 05:15:04;;;;;;;3.45;2.35;;;;;;;;;;5104318;28;20020;-58
2022/04/06 05:17:31;;;;;;;3.88;2.30;;;;;;;;;;5102410;28;20047;-58
2022/04/06 05:19:57;;;;;;;2.60;1.90;;;;;;;;;;5105688;28;20115;-58
2022/04/06 05:22:23;;;;;;;3.28;2.15;;;;;;;;;;5106463;28;20024;-58
2022/04/06 05:24:50;;;;;;;3.00;2.30;;;;;;;;;;5105950;28;20419;-58
2022/04/06 05:27:16;;;;;;;3.22;2.38;;;;;;;;;;5106778;28;20647;-58
2022/04/06 05:29:42;;;;;;;2.45;2.10;;;;;;;;;;5104096;28;20474;-58
2022/04/06 05:32:09;;;;;;;3.03;2.15;;;;;;;;;;5106263;28;20012;-58
2022/04/06 05:34:35;;;;;;;3.28;2.05;;;;;;;;;;5106401;28;20462;-58
2022/04/06 05:37:02;;;;;;;4.80;2.55;;;;;;;;;;5106373;28;20417;-58
2022/04/06 05:39:28;;;;;;;3.05;2.25;;;;;;;;;;5104434;28;20036;-58
2022/04/06 05:41:54;;;;;;;2.97;2.00;;;;;;;;;;5106477;28;20048;-58
2022/04/06 05:44:20;;;;;;;2.53;2.33;;;;;;;;;;5106653;28;20019;-58
2022/04/06 05:46:46;;;;;;;2.65;1.80;;;;;;;;;;5106531;28;20032;-58
2022/04/06 05:49:12;;;;;;;2.13;1.92;;;;;;;;;;5104619;28;20036;-58
2022/04/06 05:51:38;;;;;;;2.30;1.88;;;;;;;;;;5106416;28;20634;-58
2022/04/06 05:54:04;;;;;;;2.75;1.70;;;;;;;;;;5106737;28;20096;-58
2022/04/06 05:56:31;;;;;;;2.15;1.77;;;;;;;;;;5106613;28;20110;-58
2022/04/06 05:58:57;;;;;;;2.78;2.10;;;;;;;;;;5106189;28;20034;-58
2022/04/06 06:01:24;;;;;;;2.13;1.70;;;;;;;;;;5106008;28;20035;-58
2022/04/06 06:03:50;;;;;;;4.10;2.22;;;;;;;;;;5105999;28;20036;-58
2022/04/06 06:06:16;;;;;;;3.30;1.77;;;;;;;;;;5106362;28;20541;-58
2022/04/06 06:08:42;;;;;;;2.33;1.83;;;;;;;;;;5106651;28;20036;-58
2022/04/06 06:11:08;;;;;;;2.03;1.63;;;;;;;;;;5106685;28;20956;-58
2022/04/06 06:13:34;;;;;;;2.25;1.73;;;;;;;;;;5106315;28;20410;-58
2022/04/06 06:16:01;;;;;;;1.85;1.50;;;;;;;;;;5099338;28;20027;-58
2022/04/06 06:18:27;;;;;;;2.17;1.58;;;;;;;;;;5103415;28;20032;-58
2022/04/06 06:20:57;;;;;;;2.17;1.42;;;;;;;;;;5107000;28;20066;-59
2022/04/06 06:23:23;;;;;;;1.58;1.40;;;;;;;;;;5100864;28;20039;-58
2022/04/06 06:25:49;;;;;;;2.17;1.85;;;;;;;;;;5107146;28;20024;-58
2022/04/06 06:28:15;;;;;;;2.70;1.83;;;;;;;;;;5109515;28;20027;-58
2022/04/06 06:30:41;;;;;;;2.17;1.73;;;;;;;;;;5105216;28;20020;-58
2022/04/06 06:33:08;;;;;;;1.63;1.40;;;;;;;;;;5109355;28;20043;-58
2022/04/06 06:35:34;;;;;;;1.55;1.30;;;;;;;;;;5107048;28;20027;-58
2022/04/06 06:38:00;;;;;;;1.73;1.25;;;;;;;;;;5109517;28;20028;-58
2022/04/06 06:40:28;;;;;;;1.60;1.23;;;;;;;;;;5108051;28;20027;-58
2022/04/06 06:42:54;;;;;;;2.55;1.60;;;;;;;;;;5088719;28;20078;-58
2022/04/06 06:45:20;;;;;;;2.40;1.58;;;;;;;;;;5104946;28;20570;-58
2022/04/06 06:47:47;;;;;;;1.92;1.55;;;;;;;;;;5109150;28;20057;-58
2022/04/06 06:50:16;;;;;;;1.95;1.42;;;;;;;;;;5109114;28;20053;-58
2022/04/06 06:52:42;;;;;;;1.58;1.42;;;;;;;;;;5109022;28;20115;-58
2022/04/06 06:55:08;;;;;;;1.40;1.25;;;;;;;;;;5108409;28;20444;-58
2022/04/06 06:57:34;;;;;;;1.60;1.20;;;;;;;;;;5108830;28;20036;-58
2022/04/06 07:00:01;;;;;;;1.30;1.00;;;;;;;;;;5108986;28;20023;-58
2022/04/06 07:02:28;;;;;;;1.90;1.30;;;;;;;;;;5107710;28;20031;-58
2022/04/06 07:04:54;;;;;;;2.10;1.30;;;;;;;;;;5104465;28;20032;-58
2022/04/06 07:07:20;;;;;;;1.73;1.23;;;;;;;;;;5107071;28;20080;-58
2022/04/06 07:09:47;;;;;;;1.75;1.40;;;;;;;;;;5108704;28;20027;-58
2022/04/06 07:12:13;;;;;;;2.20;1.55;;;;;;;;;;5093469;28;20040;-58
2022/04/06 07:14:39;;;;;;;5.35;2.63;;;;;;;;;;5087541;28;20485;-58
2022/04/06 07:17:05;;;;;;;3.40;1.90;;;;;;;;;;5088204;28;20093;-59
2022/04/06 07:19:31;;;;;;;4.60;1.83;;;;;;;;;;5088225;28;20482;-58
2022/04/06 07:21:57;;;;;;;3.67;1.70;;;;;;;;;;5088372;28;20030;-58
2022/04/06 07:24:24;;;;;;;2.67;1.70;;;;;;;;;;5083685;28;20027;-58
2022/04/06 07:26:50;;;;;;;2.83;1.95;;;;;;;;;;5077794;28;20024;-58
2022/04/06 07:29:16;;;;;;;1.95;1.60;;;;;;;;;;5080314;28;20131;-58
2022/04/06 07:31:42;;;;;;;2.10;1.90;;;;;;;;;;5089029;28;20515;-58
2022/04/06 07:34:09;;;;;;;2.00;1.60;;;;;;;;;;5089226;28;20051;-58
2022/04/06 07:36:35;;;;;;;1.85;1.40;;;;;;;;;;5087973;28;20024;-58
2022/04/06 07:39:02;;;;;;;2.90;2.00;;;;;;;;;;5083785;28;20416;-58
2022/04/06 07:41:29;;;;;;;3.13;1.88;;;;;;;;;;5083335;28;20036;-58
2022/04/06 07:43:55;;;;;;;2.63;2.00;;;;;;;;;;5078028;28;20407;-58
2022/04/06 07:46:21;;;;;;;2.10;1.50;;;;;;;;;;5082946;28;20036;-58
2022/04/06 07:48:47;;;;;;;2.63;1.70;;;;;;;;;;5088523;28;20020;-58
2022/04/06 07:51:13;;;;;;;3.63;2.20;;;;;;;;;;5082399;28;20032;-58
2022/04/06 07:53:39;;;;;;;2.47;1.73;;;;;;;;;;5086744;28;20062;-58
2022/04/06 07:56:08;;;;;;;3.78;2.33;;;;;;;;;;5086572;28;20028;-58
2022/04/06 07:58:35;;;;;;;3.55;2.13;;;;;;;;;;5086399;28;20020;-58
2022/04/06 08:01:02;;;;;;;2.53;1.85;;;;;;;;;;5086235;28;20067;-58
2022/04/06 08:03:29;;;;;;;2.20;1.70;;;;;;;;;;5088810;28;20115;-58
2022/04/06 08:05:56;;;;;;;3.05;1.80;;;;;;;;;;5087783;28;20028;-58
2022/04/06 08:08:22;;;;;;;2.15;1.60;;;;;;;;;;5087668;28;20149;-58
2022/04/06 08:10:48;;;;;;;2.15;1.60;;;;;;;;;;5088289;28;20068;-58
2022/04/06 08:13:15;;;;;;;2.00;1.50;;;;;;;;;;5086307;28;20349;-58
2022/04/06 08:15:41;;;;;;;1.27;1.10;;;;;;;;;;5087544;28;20024;-57
2022/04/06 08:18:07;;;;;;;1.52;1.20;;;;;;;;;;5088182;28;20032;-58
2022/04/06 08:20:33;;;;;;;1.20;1.10;;;;;;;;;;5086327;28;20579;-58
2022/04/06 08:23:00;;;;;;;1.05;0.95;;;;;;;;;;5088583;28;20028;-58
2022/04/06 08:25:26;;;;;;;1.30;1.05;;;;;;;;;;5085495;28;20039;-57
2022/04/06 08:27:52;;;;;;;1.13;1.02;;;;;;;;;;5088076;28;20085;-58
2022/04/06 08:30:20;;;;;;;1.65;1.13;;;;;;;;;;5087537;28;20668;-58
2022/04/06 08:32:46;;;;;;;1.40;1.10;;;;;;;;;;5086194;28;20146;-58
2022/04/06 08:35:12;;;;;;;1.38;1.02;;;;;;;;;;5087618;28;20024;-57
2022/04/06 08:37:39;;;;;;;1.42;1.10;;;;;;;;;;5086204;28;20489;-58
2022/04/06 08:40:11;;;;;;;1.10;0.98;;;;;;;;;;5087982;28;20488;-58
2022/04/06 08:42:38;;;;;;;1.02;0.90;;;;;;;;;;5086401;28;20046;-58
2022/04/06 08:45:07;;;;;;;1.52;1.23;;;;;;;;;;5085290;28;20093;-58
2022/04/06 08:47:33;;;;;;;2.35;1.35;;;;;;;;;;5082310;28;20686;-58
2022/04/06 08:50:00;;;;;;;1.30;0.85;;;;;;;;;;5085644;28;20028;-57
2022/04/06 08:52:26;;;;;;;0.85;0.82;;;;;;;;;;5088344;28;20093;-58
2022/04/06 08:54:53;;;;;;;1.05;0.90;;;;;;;;;;5086637;28;20032;-58
2022/04/06 08:57:19;;;;;;;1.10;1.00;;;;;;;;;;5084887;28;20053;-57
2022/04/06 08:59:49;;;;;;;1.15;0.95;;;;;;;;;;5066836;28;20500;-57
2022/04/06 09:02:19;;;;;;;0.82;0.80;;;;;;;;;;5067730;28;20037;-57
2022/04/06 09:04:52;;;;;;;0.88;0.88;;;;;;;;;;5085376;28;20032;-58
2022/04/06 09:07:20;;;;;;;1.02;0.80;;;;;;;;;;5084523;28;20078;-58
2022/04/06 09:09:48;;;;;;;0.68;0.65;;;;;;;;;;5078168;28;20040;-58
2022/04/06 09:12:17;;;;;;;0.80;0.70;;;;;;;;;;5084078;28;20031;-58
2022/04/06 09:14:43;;;;;;;0.47;0.43;;;;;;;;;;5087142;28;20523;-58
2022/04/06 09:17:09;;;;;;;0.35;0.35;;;;;;;;;;5087311;28;20032;-58
2022/04/06 09:19:39;;;;;;;0.28;0.28;;;;;;;;;;5086003;28;20043;-58
2022/04/06 09:22:08;;;;;;;0.30;0.30;;;;;;;;;;5077622;28;20039;-58
2022/04/06 09:24:34;;;;;;;0.40;0.40;;;;;;;;;;5071406;28;20020;-58
2022/04/06 09:27:01;;;;;;;0.50;0.50;;;;;;;;;;5075189;28;20020;-58
2022/04/06 09:29:27;;;;;;;0.50;0.50;;;;;;;;;;5086573;28;20036;-58
2022/04/06 09:31:54;;;;;;;0.52;0.52;;;;;;;;;;5087440;28;20372;-58
2022/04/06 09:34:23;;;;;;;0.50;0.50;;;;;;;;;;5083195;28;20115;-58
2022/04/06 09:36:59;;;;;;;0.60;0.50;;;;;;;;;;5069308;28;20032;-57
2022/04/06 09:39:48;;;;;;;1.02;0.93;;;;;;;;;;5083282;28;20032;-57
2022/04/06 09:42:21;;;;;;;1.48;1.35;;;;;;;;;;5077003;28;20503;-58
2022/04/06 09:47:40;;;;;;;1.40;1.30;;;;;;;;;;5089808;28;20031;-58
2022/04/06 09:50:14;;;;;;;1.38;0.77;;;;;;;;;;5086740;28;20034;-58
2022/04/06 09:52:40;;;;;;;1.10;1.00;;;;;;;;;;5088194;28;20055;-58
2022/04/06 09:55:08;;;;;;;0.50;0.50;;;;;;;;;;5088332;28;20043;-58
2022/04/06 09:57:51;;;;;;;0.70;0.70;;;;;;;;;;5071901;28;20719;-58
2022/04/06 10:00:18;;;;;;;1.17;1.07;;;;;;;;;;5088712;28;20028;-58
2022/04/06 10:03:04;;;;;;;1.92;1.20;;;;;;;;;;5090169;28;20051;-57
2022/04/06 10:05:31;;;;;;;1.52;1.10;;;;;;;;;;5089372;28;20032;-58
2022/04/06 10:08:01;;;;;;;0.90;0.80;;;;;;;;;;5091190;28;20020;-57
2022/04/06 10:10:27;;;;;;;0.85;0.85;;;;;;;;;;5089923;28;20082;-57
2022/04/06 10:12:54;;;;;;;1.05;0.80;;;;;;;;;;5082091;28;20051;-57
2022/04/06 10:15:20;;;;;;;0.60;0.60;;;;;;;;;;5088956;28;20032;-57
2022/04/06 10:17:46;;;;;;;1.13;0.85;;;;;;;;;;5082340;28;20400;-58
2022/04/06 10:20:12;;;;;;;0.47;0.47;;;;;;;;;;5088487;28;20032;-57
2022/04/06 10:22:47;;;;;;;0.60;0.60;;;;;;;;;;5089669;28;20028;-58
2022/04/06 10:25:26;;;;;;;0.73;0.55;;;;;;;;;;5089048;28;20028;-57
2022/04/06 10:27:54;;;;;;;0.68;0.60;;;;;;;;;;5085884;28;20534;-57
2022/04/06 10:30:23;;;;;;;0.65;0.60;;;;;;;;;;5090447;28;20554;-57
2022/04/06 10:32:50;;;;;;;0.50;0.50;;;;;;;;;;5090076;28;20067;-57
2022/04/06 10:35:31;;;;;;;0.40;0.40;;;;;;;;;;5089724;28;20036;-57
2022/04/06 10:38:00;;;;;;;0.50;0.40;;;;;;;;;;5086037;28;20034;-57
2022/04/06 10:40:31;;;;;;;0.85;0.50;;;;;;;;;;5088885;28;20085;-57
2022/04/06 10:42:57;;;;;;;0.40;0.40;;;;;;;;;;5090818;28;20082;-57
2022/04/06 10:45:29;;;;;;;0.40;0.40;;;;;;;;;;5090162;28;20046;-57
2022/04/06 10:48:10;;;;;;;0.47;0.45;;;;;;;;;;5087220;28;20028;-57
2022/04/06 10:50:37;;;;;;;1.33;0.47;;;;;;;;;;5089709;28;20043;-57
2022/04/06 10:53:32;;;;;;;0.47;0.30;;;;;;;;;;5088743;28;20027;-58
2022/04/06 10:56:12;;;;;;;0.30;0.30;;;;;;;;;;5081531;28;20057;-57
2022/04/06 10:58:53;;;;;;;0.60;0.60;;;;;;;;;;5089307;28;20035;-57
2022/04/06 11:01:19;;;;;;;1.35;0.65;;;;;;;;;;5077547;28;20039;-58
2022/04/06 11:03:56;;;;;;;0.90;0.90;;;;;;;;;;5082838;28;20028;-58
2022/04/06 11:06:41;;;;;;;0.57;0.57;;;;;;;;;;5087459;28;20024;-50
2022/04/06 11:12:15;;;;;;;0.50;0.50;;;;;;;;;;5085830;28;20074;-49
2022/04/06 11:14:42;;;;;;;0.50;0.50;;;;;;;;;;5080343;28;20556;-49
2022/04/06 11:17:26;;;;;;;0.98;0.50;;;;;;;;;;5082998;28;20059;-47
2022/04/06 11:19:54;;;;;;;0.32;0.32;;;;;;;;;;5073951;28;20525;-52
2022/04/06 11:22:24;;;;;;;0.98;0.50;;;;;;;;;;5087882;28;20036;-52
2022/04/06 11:24:51;;;;;;;0.50;0.50;;;;;;;;;;5084378;28;20103;-51
2022/04/06 11:27:31;;;;;;;0.40;0.40;;;;;;;;;;5077311;28;20032;-47
2022/04/06 11:30:17;;;;;;;0.40;0.40;;;;;;;;;;5085680;28;20070;-48
2022/04/06 11:32:50;;;;;;;0.40;0.40;;;;;;;;;;5088076;28;20094;-51
2022/04/06 11:35:17;;;;;;;0.60;0.60;;;;;;;;;;5088017;28;20020;-49
2022/04/06 11:37:47;;;;;;;1.23;0.68;;;;;;;;;;5087034;28;20036;-48
2022/04/06 11:40:14;;;;;;;0.63;0.45;;;;;;;;;;5085584;28;20119;-46
2022/04/06 11:42:40;;;;;;;1.35;0.60;;;;;;;;;;5087331;28;20128;-50
2022/04/06 11:45:07;;;;;;;1.17;0.93;;;;;;;;;;5087386;28;20082;-49
2022/04/06 11:47:37;;;;;;;0.75;0.63;;;;;;;;;;5087672;28;20024;-50
2022/04/06 11:50:06;;;;;;;0.82;0.70;;;;;;;;;;5085805;28;20028;-50
2022/04/06 11:52:34;;;;;;;1.00;0.70;;;;;;;;;;5075050;28;20169;-48
2022/04/06 11:55:00;;;;;;;0.82;0.70;;;;;;;;;;5083946;28;20040;-52
2022/04/06 11:57:37;;;;;;;1.80;0.70;;;;;;;;;;5078236;28;20029;-49
2022/04/06 12:00:11;;;;;;;0.68;0.60;;;;;;;;;;5069771;28;20028;-51
2022/04/06 12:02:53;;;;;;;1.30;0.83;;;;;;;;;;5083444;28;20016;-50
2022/04/06 12:05:20;;;;;;;0.50;0.50;;;;;;;;;;5077742;28;20031;-49
2022/04/06 12:07:46;;;;;;;0.80;0.60;;;;;;;;;;5084869;28;20058;-46
2022/04/06 12:10:13;;;;;;;0.60;0.60;;;;;;;;;;5079668;28;20435;-48
2022/04/06 12:12:40;;;;;;;0.85;0.73;;;;;;;;;;5083295;28;20438;-50
2022/04/06 12:15:06;;;;;;;0.70;0.55;;;;;;;;;;5085855;28;20078;-51
2022/04/06 12:17:36;;;;;;;0.68;0.68;;;;;;;;;;5086696;28;20032;-49
2022/04/06 12:20:08;;;;;;;0.77;0.70;;;;;;;;;;5086393;28;20028;-51
2022/04/06 12:22:34;;;;;;;1.13;1.00;;;;;;;;;;5085764;28;20028;-48
2022/04/06 12:25:00;;;;;;;0.60;0.60;;;;;;;;;;5085274;28;20518;-51
2022/04/06 12:27:30;;;;;;;0.63;0.63;;;;;;;;;;5081929;28;20393;-50
2022/04/06 12:30:06;;;;;;;1.98;0.65;;;;;;;;;;5085141;28;20031;-48
2022/04/06 12:32:42;;;;;;;0.95;0.90;;;;;;;;;;5086783;28;20024;-48
2022/04/06 12:35:08;;;;;;;;;;;;;;;;;;5083264;28;20031;-47
2022/04/06 12:37:36;;;;;;;;;;;;;;;;;;5085127;28;19915;-49
2022/04/06 12:40:05;;;;;;;;;;;;;;;;;;5074375;28;19908;-49
2022/04/06 12:42:31;;;;;;;;;;;;;;;;;;5082040;28;19960;-47
2022/04/06 12:44:57;;;;;;;;;;;;;;;;;;5082440;28;19912;-50
2022/04/06 12:47:25;;;;;;;;;;;;;;;;;;5085419;28;19907;-46
2022/04/06 12:49:52;;;;;;;;;;;;;;;;;;5066733;28;20374;-46
2022/04/06 12:52:18;;;;;;;;;;;;;;;;;;5076342;28;19912;-48
2022/04/06 12:54:45;;;;;;;;;;;;;;;;;;5084774;28;20045;-50
2022/04/06 12:57:13;;;;;;;;;;;;;;;;;;5086517;28;19916;-50
2022/04/06 12:59:39;;;;;;;;;;;;;;;;;;5085356;28;19904;-51
2022/04/06 13:02:05;;;;;;;0.90;0.90;;;;;;;;;;5085069;28;20433;-49
2022/04/06 13:04:32;;;;;;;0.90;0.90;;;;;;;;;;5081040;28;20497;-51
2022/04/06 13:06:58;;;;;;;1.10;1.00;;;;;;;;;;5084815;28;20036;-50
2022/04/06 13:09:24;;;;;;;0.65;0.63;;;;;;;;;;5086137;28;20571;-49
2022/04/06 13:11:51;;;;;;;0.90;0.80;;;;;;;;;;5085649;28;20073;-48
2022/04/06 13:14:20;;;;;;;1.02;0.93;;;;;;;;;;5084147;28;20101;-46
2022/04/06 13:16:46;;;;;;;1.52;1.10;;;;;;;;;;5086390;28;20028;-49
2022/04/06 13:19:12;;;;;;;1.77;1.25;;;;;;;;;;5086968;28;20361;-50
2022/04/06 13:21:39;;;;;;;0.88;0.88;;;;;;;;;;5088914;28;20086;-46
2022/04/06 13:24:07;;;;;;;0.90;0.90;;;;;;;;;;5087503;28;20031;-48
2022/04/06 13:26:33;;;;;;;1.00;0.90;;;;;;;;;;5087065;28;20468;-47
2022/04/06 13:28:59;;;;;;;0.82;0.82;;;;;;;;;;5088037;28;20408;-50
2022/04/06 13:31:27;;;;;;;0.80;0.80;;;;;;;;;;5088040;28;20109;-50
2022/04/06 13:33:53;;;;;;;1.50;0.90;;;;;;;;;;5087999;28;20531;-49
2022/04/06 13:36:20;;;;;;;1.13;1.00;;;;;;;;;;5089299;28;20032;-48
2022/04/06 13:38:47;;;;;;;0.82;0.82;;;;;;;;;;5087031;28;20028;-51
2022/04/06 13:41:13;;;;;;;0.63;0.60;;;;;;;;;;5088887;28;20487;-50
2022/04/06 13:43:39;;;;;;;0.70;0.70;;;;;;;;;;5087726;28;20024;-47
2022/04/06 13:46:06;;;;;;;0.60;0.60;;;;;;;;;;5088807;28;20028;-49
2022/04/06 13:48:33;;;;;;;1.15;0.70;;;;;;;;;;5088714;28;20016;-49
2022/04/06 13:50:59;;;;;;;0.40;0.40;;;;;;;;;;5087810;28;20024;-50
2022/04/06 13:53:25;;;;;;;0.63;0.63;;;;;;;;;;5087042;28;20107;-46
2022/04/06 13:55:51;;;;;;;0.60;0.60;;;;;;;;;;5087755;28;20127;-50
2022/04/06 13:58:17;;;;;;;0.60;0.60;;;;;;;;;;5087563;28;20031;-46
2022/04/06 14:00:43;;;;;;;0.65;0.65;;;;;;;;;;5087262;28;20071;-50
2022/04/06 14:03:09;;;;;;;0.80;0.80;;;;;;;;;;5087739;28;20035;-50
2022/04/06 14:05:36;;;;;;;0.70;0.70;;;;;;;;;;5089690;28;20024;-49
2022/04/06 14:08:02;;;;;;;0.98;0.70;;;;;;;;;;5089385;28;20024;-50
2022/04/06 14:10:28;;;;;;;0.60;0.60;;;;;;;;;;5088713;28;20559;-51
2022/04/06 14:12:54;;;;;;;0.70;0.70;;;;;;;;;;5089878;28;20620;-46
2022/04/06 14:15:22;;;;;;;;;;;;;;;;;;5089383;28;20061;-52
2022/04/06 14:17:48;;;;;;;;;;;;;;;;;;5089998;28;19908;-50
2022/04/06 14:20:15;;;;;;;;;;;;;;;;;;5083707;28;19908;-47
2022/04/06 14:22:44;;;;;;;;;;;;;;;;;;5083047;28;19920;-50
2022/04/06 14:25:19;;;;;;;;;;;;;;;;;;5076685;28;19922;-48
2022/04/06 14:27:45;;;;;;;;;;;;;;;;;;5067859;28;20464;-48
2022/04/06 14:30:10;;;;;;;;;;;;;;;;;;5083827;28;19931;-49
2022/04/06 17:02:36;;;;;;;;;;;;;;;;;;6292468;22;19919;-51
2022/04/06 17:05:02;;;;;;;;;;;;;;;;;;6076063;23;3522532;-47
2022/04/06 17:07:28;;;;;;;;;;;;;;;;;;6249296;23;19934;-50
2022/04/06 17:09:55;;;;;;;;;;;;;;;;;;6248850;23;19907;-47
2022/04/06 17:12:21;;;;;;;;;;;;;;;;;;6221502;23;19907;-48
2022/04/06 17:14:47;;;;;;;;;;;;;;;;;;6248263;23;19904;-49
2022/04/06 17:17:16;;;;;;;;;;;;;;;;;;6246429;23;19918;-49
2022/04/06 17:19:42;;;;;;;;;;;;;;;;;;6246995;23;19908;-50
2022/04/06 17:22:08;;;;;;;;;;;;;;;;;;6248969;23;19972;-47
2022/04/06 17:24:34;;;;;;;;;;;;;;;;;;6247634;23;19903;-48
2022/04/06 17:27:00;;;;;;;;;;;;;;;;;;6221526;23;20254;-50
2022/04/06 17:29:26;;;;;;;;;;;;;;;;;;6248224;23;19958;-49
2022/04/06 17:31:52;;;;;;;;;;;;;;;;;;6246955;23;19907;-48
2022/04/06 17:34:19;;;;;;;;;;;;;;;;;;6248067;23;19904;-48